»·PEaware :: N153MS KLAS-KSBA

N153MS :: KLAS-KSBA

FLIGHT INFORMATION

Flight Status: Arrived
Operator: Privately registered:
United States
More flights under this callsign
Pilot: Shane N. (25833)
Aircraft: MOONEY M-20K/M ENCORE BRAVO
(M20T)
More flights by this aircraft type
Origin: KLAS McCarran Intl
United States
Destination: KSBA Santa Barbara Mun
United States
More flights between these airports :: More routes between these airports
Route: LAS V538 GFS V210 HEC V12 RZS
File this flight plan on PilotEdge
Remarks:
Altitude:
(Current/Filed)
12,000ft
Speed:
(Current/Filed)
200kts
Departed: 18-Mar-20 09:25 PM
Arrived: 18-Mar-20 11:00 PM
Distance/Time
Traveled:
250nm/1:35
Distance/Time
To Go:
Arrived

Flight Plot

Page will automatically refresh every two minutes.

Flight plan parsing failed; only flown route is shown


Map Options




Map Legend


Flown Route
Filed Route
Departure Airport
Arrival Airport
Navaid (VOR, NDB)
Fix

Horizontal Profiles

Position Reports

Time Latitude Longitude Heading Altitude Ground
Speed
18-Mar-20 20:57 36.081246 -115.171327 89 2170ft 0kts
18-Mar-20 20:58 36.081246 -115.171327 89 2170ft 0kts
18-Mar-20 20:59 36.081246 -115.171327 89 2170ft 0kts
18-Mar-20 21:00 36.081246 -115.171327 89 2170ft 0kts
18-Mar-20 21:01 36.081246 -115.171327 89 2170ft 0kts
18-Mar-20 21:02 36.081246 -115.171327 89 2170ft 0kts
18-Mar-20 21:03 36.081246 -115.171327 89 2170ft 0kts
18-Mar-20 21:04 36.081246 -115.171327 89 2170ft 0kts
18-Mar-20 21:05 36.081246 -115.171327 89 2170ft 0kts
18-Mar-20 21:06 36.081246 -115.171327 89 2170ft 0kts
18-Mar-20 21:07 36.081246 -115.171327 89 2170ft 0kts
18-Mar-20 21:08 36.081246 -115.171327 89 2170ft 0kts
18-Mar-20 21:09 36.081246 -115.171327 89 2170ft 0kts
18-Mar-20 21:10 36.081246 -115.171327 89 2170ft 0kts
18-Mar-20 21:11 36.081246 -115.171327 89 2170ft 0kts
18-Mar-20 21:12 36.081246 -115.171327 89 2170ft 0kts
18-Mar-20 21:13 36.081246 -115.171327 89 2170ft 0kts
18-Mar-20 21:14 36.081246 -115.171327 89 2170ft 0kts
18-Mar-20 21:15 36.081240 -115.171084 119 2169ft 7kts
18-Mar-20 21:16 36.084830 -115.167332 25 2152ft 19kts
18-Mar-20 21:17 36.089287 -115.164778 25 2133ft 17kts
18-Mar-20 21:18 36.093508 -115.162370 24 2111ft 17kts
18-Mar-20 21:19 36.097577 -115.160053 24 2095ft 15kts
18-Mar-20 21:20 36.099848 -115.157620 82 2085ft 0kts
18-Mar-20 21:21 36.099848 -115.157620 82 2085ft 0kts
18-Mar-20 21:22 36.099848 -115.157620 82 2085ft 0kts
18-Mar-20 21:23 36.099848 -115.157620 82 2085ft 0kts
18-Mar-20 21:24 36.098379 -115.157159 203 2086ft 41kts
18-Mar-20 21:25 36.073532 -115.168254 185 3165ft 109kts
18-Mar-20 21:26 36.043305 -115.174622 185 4770ft 113kts
18-Mar-20 21:27 36.001725 -115.181693 186 4991ft 172kts
18-Mar-20 21:28 35.954931 -115.189051 185 6001ft 158kts
18-Mar-20 21:29 35.913922 -115.195426 185 7695ft 142kts
18-Mar-20 21:30 35.876860 -115.200819 185 9362ft 134kts
18-Mar-20 21:31 35.837897 -115.205991 185 10830ft 140kts
18-Mar-20 21:32 35.797890 -115.210819 185 11988ft 168kts
18-Mar-20 21:33 35.744434 -115.216975 186 11990ft 206kts
18-Mar-20 21:34 35.686757 -115.223576 186 11990ft 209kts
18-Mar-20 21:35 35.628643 -115.230211 186 11990ft 210kts
18-Mar-20 21:36 35.570355 -115.236861 186 11990ft 210kts
18-Mar-20 21:37 35.512297 -115.233937 173 11990ft 209kts
18-Mar-20 21:38 35.455095 -115.225190 173 11990ft 205kts
18-Mar-20 21:39 35.410024 -115.246559 245 11988ft 191kts
18-Mar-20 21:40 35.384422 -115.303519 240 11991ft 190kts
18-Mar-20 21:41 35.359057 -115.354914 240 11990ft 192kts
18-Mar-20 21:42 35.330915 -115.411312 240 11963ft 194kts
18-Mar-20 21:43 35.302626 -115.467847 240 11963ft 194kts
18-Mar-20 21:44 35.274528 -115.523889 240 11962ft 190kts
18-Mar-20 21:46 35.247088 -115.578522 240 11963ft 187kts
18-Mar-20 21:47 35.220974 -115.630450 240 11963ft 188kts
18-Mar-20 21:48 35.197100 -115.677860 239 11964ft 189kts
18-Mar-20 21:49 35.169728 -115.732140 239 11976ft 190kts
18-Mar-20 21:50 35.141844 -115.787355 239 11984ft 191kts
18-Mar-20 21:51 35.113717 -115.842960 239 11985ft 193kts
18-Mar-20 21:52 35.085397 -115.898857 239 11979ft 194kts
18-Mar-20 21:53 35.056775 -115.955259 239 11973ft 196kts
18-Mar-20 21:54 35.027956 -116.011949 239 11977ft 197kts
18-Mar-20 21:55 34.999093 -116.068635 240 11990ft 197kts
18-Mar-20 21:56 34.970078 -116.125536 241 12003ft 198kts
18-Mar-20 21:57 34.941079 -116.182314 242 12014ft 198kts
18-Mar-20 21:58 34.911830 -116.239490 242 12015ft 199kts
18-Mar-20 21:59 34.883359 -116.295049 243 12007ft 199kts
18-Mar-20 22:00 34.854024 -116.352216 243 11994ft 199kts
18-Mar-20 22:01 34.824532 -116.409587 243 11979ft 200kts
18-Mar-20 22:01 34.800752 -116.457866 256 11970ft 197kts
18-Mar-20 22:03 34.790356 -116.533978 267 11923ft 195kts
18-Mar-20 22:04 34.783770 -116.599847 267 11923ft 195kts
18-Mar-20 22:04 34.778431 -116.654154 267 11924ft 196kts
18-Mar-20 22:06 34.770850 -116.731043 267 11926ft 196kts
18-Mar-20 22:07 34.764307 -116.796985 267 11926ft 196kts
18-Mar-20 22:07 34.758818 -116.852022 267 11926ft 196kts
18-Mar-20 22:08 34.752246 -116.917700 266 11962ft 195kts
18-Mar-20 22:10 34.744504 -116.994664 266 11962ft 196kts
18-Mar-20 22:10 34.738952 -117.049465 265 11949ft 197kts
18-Mar-20 22:11 34.732175 -117.115745 265 11935ft 197kts
18-Mar-20 22:12 34.725395 -117.181748 265 11934ft 197kts
18-Mar-20 22:13 34.718583 -117.247758 265 11934ft 197kts
18-Mar-20 22:14 34.711750 -117.313723 265 11937ft 196kts
18-Mar-20 22:15 34.704880 -117.379739 265 11942ft 196kts
18-Mar-20 22:16 34.697993 -117.445511 265 11945ft 196kts
18-Mar-20 22:17 34.691056 -117.511430 265 11948ft 196kts
18-Mar-20 22:18 34.684107 -117.577141 265 11950ft 196kts
18-Mar-20 22:19 34.677119 -117.642887 265 11951ft 196kts
18-Mar-20 22:20 34.670158 -117.708039 264 11955ft 196kts
18-Mar-20 22:21 34.663077 -117.773945 264 11955ft 197kts
18-Mar-20 22:23 34.654738 -117.851061 264 11955ft 196kts
18-Mar-20 22:23 34.648796 -117.905717 264 11962ft 196kts
18-Mar-20 22:24 34.641597 -117.971619 264 11970ft 196kts
18-Mar-20 22:25 34.634388 -118.037281 264 11976ft 196kts
18-Mar-20 22:26 34.628966 -118.103170 267 11981ft 196kts
18-Mar-20 22:27 34.624650 -118.169097 267 11980ft 196kts
18-Mar-20 22:28 34.620333 -118.234994 267 11980ft 195kts
18-Mar-20 22:29 34.615971 -118.300876 267 11980ft 195kts
18-Mar-20 22:30 34.611556 -118.366767 267 11981ft 195kts
18-Mar-20 22:31 34.607161 -118.432793 267 11946ft 196kts
18-Mar-20 22:32 34.602707 -118.498745 267 11948ft 196kts
18-Mar-20 22:33 34.598219 -118.564550 267 11949ft 196kts
18-Mar-20 22:34 34.593688 -118.630482 267 11949ft 196kts
18-Mar-20 22:35 34.589144 -118.696092 267 11952ft 196kts
18-Mar-20 22:36 34.584543 -118.762005 267 11950ft 196kts
18-Mar-20 22:37 34.579884 -118.828195 267 11948ft 196kts
18-Mar-20 22:38 34.575198 -118.894255 267 11947ft 196kts
18-Mar-20 22:39 34.568808 -118.960135 246 11903ft 204kts
18-Mar-20 22:40 34.531046 -119.011510 232 10714ft 203kts
18-Mar-20 22:41 34.492781 -119.061445 232 9214ft 202kts
18-Mar-20 22:42 34.456218 -119.108939 231 8947ft 185kts
18-Mar-20 22:43 34.419750 -119.156344 231 8949ft 197kts
18-Mar-20 22:44 34.385048 -119.207332 242 8710ft 194kts
18-Mar-20 22:45 34.356538 -119.260412 243 7199ft 181kts
18-Mar-20 22:46 34.344878 -119.315310 262 5687ft 164kts
18-Mar-20 22:47 34.334990 -119.370620 261 4182ft 179kts
18-Mar-20 22:48 34.325286 -119.424690 261 3960ft 159kts
18-Mar-20 22:49 34.315570 -119.478555 261 3963ft 165kts
18-Mar-20 22:50 34.316761 -119.532277 292 3660ft 162kts
18-Mar-20 22:51 34.335348 -119.581549 295 2646ft 159kts
18-Mar-20 22:52 34.353757 -119.629181 295 2074ft 152kts
18-Mar-20 22:53 34.371816 -119.675919 296 2081ft 157kts
18-Mar-20 22:54 34.390361 -119.726264 295 1842ft 157kts
18-Mar-20 22:55 34.406873 -119.769404 296 1130ft 123kts
18-Mar-20 22:56 34.417185 -119.796460 295 680ft 72kts
18-Mar-20 22:58 34.426271 -119.820991 281 331ft 69kts
18-Mar-20 22:58 34.427716 -119.839306 269 12ft 52kts
18-Mar-20 22:59 34.428354 -119.845688 47 14ft 9kts
18-Mar-20 23:00 34.430050 -119.841424 63 12ft 18kts
18-Mar-20 23:01 34.432097 -119.835689 11 13ft 14kts
18-Mar-20 23:02 34.432809 -119.835551 69 14ft 0kts
18-Mar-20 23:03 34.432809 -119.835551 69 14ft 0kts
18-Mar-20 23:04 34.432809 -119.835551 69 14ft 0kts
18-Mar-20 23:05 34.432809 -119.835551 69 14ft 0kts
18-Mar-20 23:06 34.432809 -119.835551 69 14ft 0kts
18-Mar-20 23:07 34.432809 -119.835552 69 14ft 0kts
18-Mar-20 23:08 34.432809 -119.835552 69 14ft 0kts
18-Mar-20 23:09 34.432809 -119.835552 69 14ft 0kts
18-Mar-20 23:10 34.432809 -119.835552 69 14ft 0kts
18-Mar-20 23:11 34.432809 -119.835552 69 14ft 0kts
18-Mar-20 23:12 34.432809 -119.835552 69 14ft 0kts
18-Mar-20 23:13 34.432809 -119.835552 69 14ft 0kts

Navigation Log

Ident Type
Flight plan parsing failed, navigation log unavailable